createdAt,value
2017-05-20T00:01:04.506Z,0
2017-05-20T00:02:14.141Z,0
2017-05-20T00:03:24.412Z,0
2017-05-20T00:04:34.688Z,0
2017-05-20T00:05:44.016Z,0
2017-05-20T00:06:54.281Z,0
2017-05-20T00:08:04.232Z,0
2017-05-20T00:09:14.501Z,0
2017-05-20T00:10:24.453Z,0
2017-05-20T00:11:34.715Z,0
2017-05-20T00:12:44.671Z,0
2017-05-20T00:13:54.618Z,0
2017-05-20T00:15:04.577Z,0
2017-05-20T00:16:14.525Z,0
2017-05-20T00:17:24.483Z,0
2017-05-20T00:18:34.446Z,0
2017-05-20T00:19:44.720Z,0
2017-05-20T00:20:54.674Z,0
2017-05-20T00:22:06.933Z,0
2017-05-20T00:23:16.886Z,0
2017-05-20T00:24:26.529Z,0
2017-05-20T00:25:36.475Z,0
2017-05-20T00:26:46.430Z,0
2017-05-20T00:27:56.698Z,0
2017-05-20T00:29:06.338Z,0
2017-05-20T00:30:15.663Z,0
2017-05-20T00:31:25.617Z,0
2017-05-20T00:32:35.883Z,0
2017-05-20T00:33:46.148Z,0
2017-05-20T00:34:56.099Z,0
2017-05-20T00:36:06.367Z,0
2017-05-20T00:37:16.333Z,0
2017-05-20T00:38:25.974Z,0
2017-05-20T00:39:35.922Z,0
2017-05-20T00:40:45.883Z,0
2017-05-20T00:41:55.516Z,0
2017-05-20T00:43:05.155Z,0
2017-05-20T00:44:15.422Z,0
2017-05-20T00:45:25.683Z,0
2017-05-20T00:46:35.635Z,0
2017-05-20T00:47:45.908Z,0
2017-05-20T00:48:55.860Z,0
2017-05-20T00:50:05.814Z,0
2017-05-20T00:51:15.764Z,0
2017-05-20T00:52:25.718Z,0
2017-05-20T00:53:35.993Z,0
2017-05-20T00:54:45.943Z,0
2017-05-20T00:55:55.895Z,0
2017-05-20T00:57:05.846Z,0
2017-05-20T00:58:15.798Z,0
2017-05-20T00:59:25.752Z,0
2017-05-20T01:00:36.017Z,0
2017-05-20T01:01:45.970Z,0
2017-05-20T01:02:55.929Z,0
2017-05-20T01:04:06.205Z,0
2017-05-20T01:05:16.163Z,0
2017-05-20T01:06:26.424Z,0
2017-05-20T01:07:36.692Z,0
2017-05-20T01:08:46.965Z,0
2017-05-20T01:09:56.912Z,0
2017-05-20T01:11:06.862Z,0
2017-05-20T01:12:16.814Z,0
2017-05-20T01:13:27.086Z,0
2017-05-20T01:14:36.723Z,0
2017-05-20T01:15:46.675Z,0
2017-05-20T01:16:56.626Z,0
2017-05-20T01:18:06.577Z,0
2017-05-20T01:19:16.526Z,0
2017-05-20T01:20:26.472Z,0
2017-05-20T01:21:36.735Z,0
2017-05-20T01:22:46.690Z,0
2017-05-20T01:23:56.948Z,0
2017-05-20T01:25:06.595Z,0
2017-05-20T01:26:16.539Z,0
2017-05-20T01:27:26.491Z,0
2017-05-20T01:28:36.757Z,0
2017-05-20T01:29:46.713Z,0
2017-05-20T01:30:56.973Z,0
2017-05-20T01:32:06.611Z,0
2017-05-20T01:33:16.872Z,0
2017-05-20T01:34:27.199Z,0
2017-05-20T01:35:37.213Z,0
2017-05-20T01:36:47.475Z,0
2017-05-20T01:37:57.108Z,0
2017-05-20T01:39:07.065Z,0
2017-05-20T01:40:17.022Z,0
2017-05-20T01:41:26.659Z,0
2017-05-20T01:42:36.293Z,0
2017-05-20T01:43:47.945Z,0
2017-05-20T01:44:57.592Z,0
2017-05-20T01:46:07.235Z,0
2017-05-20T01:47:17.495Z,0
2017-05-20T01:48:27.446Z,0
2017-05-20T01:49:37.393Z,0
2017-05-20T01:50:47.032Z,0
2017-05-20T01:51:56.984Z,0
2017-05-20T01:53:06.938Z,0
2017-05-20T01:54:16.896Z,0
2017-05-20T01:55:27.155Z,0
2017-05-20T01:56:37.414Z,0
2017-05-20T01:57:47.688Z,0
2017-05-20T01:58:57.964Z,0
2017-05-20T02:00:07.602Z,0
2017-05-20T02:01:16.926Z,0
2017-05-20T02:02:27.192Z,0
2017-05-20T02:03:37.463Z,0
2017-05-20T02:04:47.733Z,0
2017-05-20T02:05:58.001Z,0
2017-05-20T02:07:07.329Z,0
2017-05-20T02:08:17.594Z,0
2017-05-20T02:09:27.856Z,0
2017-05-20T02:10:38.123Z,0
2017-05-20T02:11:48.077Z,0
2017-05-20T02:12:58.030Z,0
2017-05-20T02:14:07.352Z,0
2017-05-20T02:15:17.616Z,0
2017-05-20T02:16:27.570Z,0
2017-05-20T02:17:37.834Z,0
2017-05-20T02:18:48.116Z,0
2017-05-20T02:19:58.388Z,0
2017-05-20T02:21:08.028Z,0
2017-05-20T02:22:18.303Z,0
2017-05-20T02:23:28.562Z,0
2017-05-20T02:24:38.513Z,0
2017-05-20T02:25:48.779Z,0
2017-05-20T02:26:58.782Z,0
2017-05-20T02:28:09.062Z,0
2017-05-20T02:29:19.011Z,0
2017-05-20T02:30:29.272Z,0
2017-05-20T02:31:39.220Z,0
2017-05-20T02:32:49.169Z,0
2017-05-20T02:33:59.176Z,0
2017-05-20T02:35:09.449Z,0
2017-05-20T02:36:19.080Z,0
2017-05-20T02:37:29.350Z,0
2017-05-20T02:38:39.633Z,0
2017-05-20T02:39:49.278Z,0
2017-05-20T02:40:59.540Z,0
2017-05-20T02:42:09.181Z,5
2017-05-20T02:43:19.136Z,5
2017-05-20T02:44:29.412Z,5
2017-05-20T02:45:39.052Z,5
2017-05-20T02:46:49.318Z,5
2017-05-20T02:47:59.270Z,5
2017-05-20T02:49:09.536Z,5
2017-05-20T02:50:19.492Z,5
2017-05-20T02:51:29.758Z,5
2017-05-20T02:52:39.711Z,5
2017-05-20T02:53:49.984Z,5
2017-05-20T02:54:59.941Z,5
2017-05-20T02:56:09.887Z,5
2017-05-20T02:57:20.155Z,5
2017-05-20T02:58:30.112Z,5
2017-05-20T02:59:40.380Z,5
2017-05-20T03:00:50.649Z,5
2017-05-20T03:02:00.914Z,5
2017-05-20T03:03:10.551Z,10
2017-05-20T03:04:20.816Z,10
2017-05-20T03:05:31.074Z,10
2017-05-20T03:06:41.335Z,10
2017-05-20T03:07:51.603Z,10
2017-05-20T03:09:01.555Z,15
2017-05-20T03:10:11.821Z,15
2017-05-20T03:11:21.771Z,15
2017-05-20T03:12:31.720Z,15
2017-05-20T03:13:41.989Z,15
2017-05-20T03:14:51.947Z,15
2017-05-20T03:16:02.207Z,15
2017-05-20T03:17:12.470Z,15
2017-05-20T03:18:22.420Z,15
2017-05-20T03:19:32.698Z,15
2017-05-20T03:20:42.657Z,15
2017-05-20T03:21:52.926Z,20
2017-05-20T03:23:02.571Z,20
2017-05-20T03:24:12.847Z,20
2017-05-20T03:25:22.856Z,20
2017-05-20T03:26:33.129Z,20
2017-05-20T03:27:43.137Z,20
2017-05-20T03:28:53.089Z,20
2017-05-20T03:30:03.412Z,20
2017-05-20T03:31:13.678Z,20
2017-05-20T03:32:23.945Z,20
2017-05-20T03:33:33.893Z,20
2017-05-20T03:34:43.843Z,20
2017-05-20T03:35:53.480Z,15
2017-05-20T03:37:03.747Z,15
2017-05-20T03:38:14.013Z,15
2017-05-20T03:39:23.657Z,20
2017-05-20T03:40:33.922Z,20
2017-05-20T03:41:43.552Z,25
2017-05-20T03:42:53.514Z,25
2017-05-20T03:44:03.157Z,25
2017-05-20T03:45:13.110Z,25
2017-05-20T03:46:23.372Z,25
2017-05-20T03:47:33.005Z,25
2017-05-20T03:48:42.359Z,20
2017-05-20T03:49:51.999Z,20
2017-05-20T03:51:02.320Z,25
2017-05-20T03:52:12.272Z,25
2017-05-20T03:53:22.228Z,25
2017-05-20T03:54:32.499Z,25
2017-05-20T03:55:42.766Z,25
2017-05-20T03:56:52.401Z,25
2017-05-20T03:58:02.359Z,25
2017-05-20T03:59:12.309Z,30
2017-05-20T04:00:22.574Z,30
2017-05-20T04:01:32.523Z,25
2017-05-20T04:02:42.787Z,30
2017-05-20T04:03:52.454Z,30
2017-05-20T04:05:02.404Z,25
2017-05-20T04:06:12.360Z,25
2017-05-20T04:07:22.310Z,25
2017-05-20T04:08:32.583Z,25
2017-05-20T04:09:42.844Z,25
2017-05-20T04:10:52.166Z,25
2017-05-20T04:12:02.434Z,25
2017-05-20T04:13:12.385Z,25
2017-05-20T04:14:22.338Z,25
2017-05-20T04:15:32.039Z,25
2017-05-20T04:16:42.310Z,25
2017-05-20T04:17:52.270Z,25
2017-05-20T04:19:02.545Z,25
2017-05-20T04:20:12.184Z,25
2017-05-20T04:21:22.443Z,25
2017-05-20T04:22:32.075Z,25
2017-05-20T04:23:42.340Z,25
2017-05-20T04:24:52.287Z,25
2017-05-20T04:26:01.922Z,25
2017-05-20T04:27:11.555Z,25
2017-05-20T04:28:21.199Z,25
2017-05-20T04:29:31.476Z,25
2017-05-20T04:30:41.802Z,25
2017-05-20T04:31:51.758Z,25
2017-05-20T04:33:01.716Z,25
2017-05-20T04:34:11.674Z,25
2017-05-20T04:35:21.632Z,25
2017-05-20T04:36:31.900Z,25
2017-05-20T04:37:41.855Z,30
2017-05-20T04:38:52.183Z,30
2017-05-20T04:40:02.451Z,30
2017-05-20T04:41:12.400Z,30
2017-05-20T04:42:22.668Z,30
2017-05-20T04:43:32.947Z,30
2017-05-20T04:44:43.218Z,30
2017-05-20T04:45:52.855Z,30
2017-05-20T04:47:02.489Z,30
2017-05-20T04:48:12.444Z,30
2017-05-20T04:49:22.289Z,30
2017-05-20T04:50:31.928Z,30
2017-05-20T04:51:41.881Z,30
2017-05-20T04:52:52.145Z,30
2017-05-20T04:54:01.781Z,35
2017-05-20T04:55:12.047Z,35
2017-05-20T04:56:22.312Z,35
2017-05-20T04:57:32.574Z,40
2017-05-20T04:58:42.525Z,40
2017-05-20T04:59:52.480Z,40
2017-05-20T05:01:02.440Z,40
2017-05-20T05:02:12.385Z,40
2017-05-20T05:03:22.345Z,40
2017-05-20T05:04:32.618Z,45
2017-05-20T05:05:42.878Z,45
2017-05-20T05:06:52.206Z,45
2017-05-20T05:08:02.156Z,45
2017-05-20T05:09:11.797Z,45
2017-05-20T05:10:21.752Z,50
2017-05-20T05:11:32.013Z,50
2017-05-20T05:12:42.274Z,55
2017-05-20T05:13:51.912Z,60
2017-05-20T05:15:02.187Z,65
2017-05-20T05:16:12.458Z,65
2017-05-20T05:17:22.411Z,65
2017-05-20T05:18:32.675Z,65
2017-05-20T05:19:42.945Z,65
2017-05-20T05:20:52.272Z,65
2017-05-20T05:22:02.216Z,65
2017-05-20T05:23:12.174Z,70
2017-05-20T05:24:22.439Z,70
2017-05-20T05:25:32.716Z,70
2017-05-20T05:26:42.669Z,70
2017-05-20T05:27:52.937Z,70
2017-05-20T05:29:03.201Z,70
2017-05-20T05:30:13.158Z,75
2017-05-20T05:31:23.108Z,80
2017-05-20T05:32:33.051Z,80
2017-05-20T05:33:42.378Z,80
2017-05-20T05:34:52.640Z,85
2017-05-20T05:36:02.907Z,95
2017-05-20T05:37:12.850Z,105
2017-05-20T05:38:22.500Z,115
2017-05-20T05:39:32.778Z,120
2017-05-20T05:40:43.074Z,130
2017-05-20T05:41:53.341Z,135
2017-05-20T05:43:03.611Z,145
2017-05-20T05:44:13.255Z,145
2017-05-20T05:45:23.210Z,140
2017-05-20T05:46:33.490Z,140
2017-05-20T05:47:43.760Z,135
2017-05-20T05:48:53.723Z,140
2017-05-20T05:50:03.681Z,140
2017-05-20T05:51:13.951Z,145
2017-05-20T05:52:24.224Z,150
2017-05-20T05:53:34.498Z,150
2017-05-20T05:54:44.137Z,140
2017-05-20T05:55:54.095Z,135
2017-05-20T05:57:04.363Z,130
2017-05-20T05:58:13.686Z,125
2017-05-20T05:59:23.641Z,125
2017-05-20T06:00:33.276Z,130
2017-05-20T06:01:43.543Z,135
2017-05-20T06:02:53.809Z,145
2017-05-20T06:04:03.129Z,150
2017-05-20T06:05:13.085Z,160
2017-05-20T06:06:23.044Z,170
2017-05-20T06:07:32.991Z,175
2017-05-20T06:08:43.263Z,180
2017-05-20T06:09:52.901Z,175
2017-05-20T06:11:02.534Z,160
2017-05-20T06:12:11.861Z,145
2017-05-20T06:13:21.829Z,135
2017-05-20T06:14:32.102Z,135
2017-05-20T06:15:42.056Z,135
2017-05-20T06:16:52.320Z,140
2017-05-20T06:18:02.591Z,150
2017-05-20T06:19:12.547Z,150
2017-05-20T06:20:22.830Z,145
2017-05-20T06:21:32.781Z,135
2017-05-20T06:22:43.043Z,130
2017-05-20T06:23:53.312Z,130
2017-05-20T06:25:03.271Z,135
2017-05-20T06:26:13.533Z,145
2017-05-20T06:27:23.479Z,150
2017-05-20T06:28:33.754Z,155
2017-05-20T06:29:43.707Z,155
2017-05-20T06:30:53.392Z,155
2017-05-20T06:32:03.339Z,150
2017-05-20T06:33:12.661Z,145
2017-05-20T06:34:22.613Z,140
2017-05-20T06:35:32.571Z,135
2017-05-20T06:36:42.842Z,130
2017-05-20T06:37:53.111Z,125
2017-05-20T06:39:03.065Z,125
2017-05-20T06:40:13.020Z,125
2017-05-20T06:41:22.968Z,120
2017-05-20T06:42:32.918Z,120
2017-05-20T06:43:42.876Z,115
2017-05-20T06:44:53.139Z,115
2017-05-20T06:46:03.402Z,110
2017-05-20T06:47:13.356Z,110
2017-05-20T06:48:23.621Z,110
2017-05-20T06:49:33.896Z,115
2017-05-20T06:50:44.161Z,120
2017-05-20T06:51:53.792Z,125
2017-05-20T06:53:02.488Z,130
2017-05-20T06:54:12.131Z,135
2017-05-20T06:55:22.394Z,140
2017-05-20T06:56:32.028Z,145
2017-05-20T06:57:42.299Z,150
2017-05-20T06:58:52.260Z,150
2017-05-20T07:00:02.539Z,150
2017-05-20T07:01:12.491Z,150
2017-05-20T07:02:22.756Z,160
2017-05-20T07:03:33.024Z,165
2017-05-20T07:04:43.290Z,165
2017-05-20T07:05:53.258Z,165
2017-05-20T07:07:03.531Z,170
2017-05-20T07:08:13.487Z,175
2017-05-20T07:09:23.139Z,180
2017-05-20T07:10:33.092Z,180
2017-05-20T07:11:43.355Z,180
2017-05-20T07:12:53.313Z,175
2017-05-20T07:14:03.588Z,170
2017-05-20T07:15:13.542Z,175
2017-05-20T07:16:23.179Z,180
2017-05-20T07:17:33.134Z,185
2017-05-20T07:18:43.080Z,190
2017-05-20T07:19:53.038Z,190
2017-05-20T07:21:02.990Z,190
2017-05-20T07:22:12.625Z,195
2017-05-20T07:23:22.575Z,195
2017-05-20T07:24:32.840Z,190
2017-05-20T07:25:43.103Z,190
2017-05-20T07:26:53.056Z,190
2017-05-20T07:28:03.326Z,195
2017-05-20T07:29:13.589Z,195
2017-05-20T07:30:23.550Z,185
2017-05-20T07:31:33.820Z,185
2017-05-20T07:32:43.771Z,185
2017-05-20T07:33:53.093Z,195
2017-05-20T07:35:03.044Z,205
2017-05-20T07:36:12.393Z,205
2017-05-20T07:37:22.668Z,205
2017-05-20T07:38:32.936Z,195
2017-05-20T07:39:43.197Z,185
2017-05-20T07:40:52.844Z,180
2017-05-20T07:42:02.799Z,175
2017-05-20T07:43:13.064Z,175
2017-05-20T07:44:22.711Z,180
2017-05-20T07:45:32.979Z,175
2017-05-20T07:46:43.238Z,170
2017-05-20T07:47:53.187Z,175
2017-05-20T07:49:02.827Z,185
2017-05-20T07:50:12.791Z,200
2017-05-20T07:51:23.020Z,220
2017-05-20T07:52:33.288Z,245
2017-05-20T07:53:43.238Z,250
2017-05-20T07:54:53.196Z,255
2017-05-20T07:56:03.149Z,260
2017-05-20T07:57:13.415Z,260
2017-05-20T07:58:23.676Z,260
2017-05-20T07:59:33.944Z,245
2017-05-20T08:00:43.901Z,225
2017-05-20T08:01:53.854Z,210
2017-05-20T08:03:03.808Z,200
2017-05-20T08:04:13.451Z,200
2017-05-20T08:05:23.406Z,195
2017-05-20T08:06:33.676Z,175
2017-05-20T08:07:43.630Z,155
2017-05-20T08:08:53.270Z,140
2017-05-20T08:10:03.543Z,135
2017-05-20T08:11:13.499Z,130
2017-05-20T08:12:23.764Z,135
2017-05-20T08:13:34.028Z,145
2017-05-20T08:14:43.978Z,155
2017-05-20T08:15:54.247Z,170
2017-05-20T08:17:03.893Z,180
2017-05-20T08:18:13.842Z,195
2017-05-20T08:19:23.476Z,200
2017-05-20T08:20:33.743Z,200
2017-05-20T08:21:43.698Z,195
2017-05-20T08:22:53.652Z,195
2017-05-20T08:24:03.605Z,205
2017-05-20T08:25:13.247Z,215
2017-05-20T08:26:23.198Z,225
2017-05-20T08:27:33.156Z,240
2017-05-20T08:28:43.114Z,245
2017-05-20T08:29:52.759Z,255
2017-05-20T08:31:02.710Z,265
2017-05-20T08:32:12.978Z,265
2017-05-20T08:33:22.933Z,250
2017-05-20T08:34:33.213Z,220
2017-05-20T08:35:43.484Z,195
2017-05-20T08:36:53.433Z,175
2017-05-20T08:38:03.707Z,165
2017-05-20T08:39:13.411Z,155
2017-05-20T08:40:23.420Z,145
2017-05-20T08:41:33.364Z,145
2017-05-20T08:42:43.312Z,145
2017-05-20T08:43:53.582Z,140
2017-05-20T08:45:03.542Z,130
2017-05-20T08:46:13.188Z,120
2017-05-20T08:47:23.138Z,115
2017-05-20T08:48:33.405Z,105
2017-05-20T08:49:43.362Z,100
2017-05-20T08:50:53.631Z,100
2017-05-20T08:52:02.956Z,95
2017-05-20T08:53:12.285Z,95
2017-05-20T08:54:22.248Z,95
2017-05-20T08:55:32.208Z,95
2017-05-20T08:56:41.843Z,100
2017-05-20T08:57:52.105Z,100
2017-05-20T08:59:02.369Z,100
2017-05-20T09:00:12.016Z,100
2017-05-20T09:01:21.969Z,105
2017-05-20T09:02:31.300Z,105
2017-05-20T09:03:41.574Z,105
2017-05-20T09:04:51.217Z,110
2017-05-20T09:06:01.166Z,105
2017-05-20T09:07:11.738Z,105
2017-05-20T09:08:21.380Z,105
2017-05-20T09:09:31.347Z,105
2017-05-20T09:10:41.617Z,110
2017-05-20T09:11:51.568Z,110
2017-05-20T09:13:01.523Z,110
2017-05-20T09:14:11.803Z,110
2017-05-20T09:15:22.067Z,115
2017-05-20T09:16:32.022Z,120
2017-05-20T09:17:42.283Z,130
2017-05-20T09:18:52.553Z,130
2017-05-20T09:20:02.844Z,135
2017-05-20T09:21:13.115Z,140
2017-05-20T09:22:23.119Z,140
2017-05-20T09:23:33.383Z,140
2017-05-20T09:24:43.327Z,140
2017-05-20T09:25:52.961Z,140
2017-05-20T09:27:02.913Z,135
2017-05-20T09:28:12.868Z,135
2017-05-20T09:29:23.142Z,130
2017-05-20T09:30:33.412Z,125
2017-05-20T09:31:43.371Z,125
2017-05-20T09:32:53.690Z,120
2017-05-20T09:34:03.956Z,120
2017-05-20T09:35:13.909Z,120
2017-05-20T09:36:23.868Z,115
2017-05-20T09:37:34.134Z,110
2017-05-20T09:38:44.091Z,105
2017-05-20T09:39:54.043Z,105
2017-05-20T09:41:03.998Z,110
2017-05-20T09:42:13.951Z,110
2017-05-20T09:43:24.227Z,115
2017-05-20T09:44:34.496Z,115
2017-05-20T09:45:44.446Z,120
2017-05-20T09:46:54.395Z,125
2017-05-20T09:48:04.670Z,130
2017-05-20T09:49:14.634Z,130
2017-05-20T09:50:24.904Z,125
2017-05-20T09:51:34.866Z,120
2017-05-20T09:52:44.815Z,115
2017-05-20T09:53:54.770Z,110
2017-05-20T09:55:04.732Z,110
2017-05-20T09:56:14.999Z,110
2017-05-20T09:57:24.948Z,115
2017-05-20T09:58:35.226Z,120
2017-05-20T09:59:45.483Z,130
2017-05-20T10:00:55.430Z,135
2017-05-20T10:02:05.696Z,145
2017-05-20T10:03:15.974Z,155
2017-05-20T10:04:25.924Z,175
2017-05-20T10:05:35.873Z,200
2017-05-20T10:06:46.134Z,230
2017-05-20T10:07:56.075Z,245
2017-05-20T10:09:05.711Z,260
2017-05-20T10:10:15.984Z,260
2017-05-20T10:11:26.254Z,240
2017-05-20T10:12:36.208Z,215
2017-05-20T10:13:45.848Z,200
2017-05-20T10:14:56.132Z,185
2017-05-20T10:16:05.775Z,175
2017-05-20T10:17:16.034Z,170
2017-05-20T10:18:25.982Z,170
2017-05-20T10:19:35.937Z,175
2017-05-20T10:20:45.885Z,175
2017-05-20T10:21:55.836Z,180
2017-05-20T10:23:06.106Z,180
2017-05-20T10:24:16.062Z,175
2017-05-20T10:25:26.007Z,175
2017-05-20T10:26:35.965Z,180
2017-05-20T10:27:46.239Z,180
2017-05-20T10:28:56.193Z,175
2017-05-20T10:30:06.146Z,165
2017-05-20T10:31:15.787Z,155
2017-05-20T10:32:26.057Z,150
2017-05-20T10:33:36.324Z,145
2017-05-20T10:34:45.850Z,140
2017-05-20T10:35:55.797Z,135
2017-05-20T10:37:05.763Z,130
2017-05-20T10:38:15.719Z,120
2017-05-20T10:39:25.051Z,110
2017-05-20T10:40:35.314Z,100
2017-05-20T10:41:45.268Z,100
2017-05-20T10:42:54.905Z,100
2017-05-20T10:44:05.168Z,100
2017-05-20T10:45:14.809Z,100
2017-05-20T10:46:24.769Z,105
2017-05-20T10:47:35.042Z,105
2017-05-20T10:48:44.369Z,110
2017-05-20T10:49:54.635Z,115
2017-05-20T10:51:03.959Z,120
2017-05-20T10:52:13.914Z,120
2017-05-20T10:53:23.870Z,120
2017-05-20T10:54:34.133Z,120
2017-05-20T10:55:43.773Z,115
2017-05-20T10:56:53.413Z,115
2017-05-20T10:58:03.357Z,120
2017-05-20T10:59:13.632Z,120
2017-05-20T11:00:22.963Z,120
2017-05-20T11:01:33.232Z,115
2017-05-20T11:02:43.570Z,115
2017-05-20T11:03:53.531Z,110
2017-05-20T11:05:03.491Z,110
2017-05-20T11:06:13.448Z,110
2017-05-20T11:07:23.399Z,115
2017-05-20T11:08:33.667Z,115
2017-05-20T11:09:43.304Z,115
2017-05-20T11:10:53.258Z,110
2017-05-20T11:12:02.894Z,110
2017-05-20T11:13:13.215Z,110
2017-05-20T11:14:23.478Z,115
2017-05-20T11:15:33.743Z,115
2017-05-20T11:16:44.009Z,120
2017-05-20T11:17:53.967Z,125
2017-05-20T11:19:04.232Z,130
2017-05-20T11:20:14.493Z,135
2017-05-20T11:21:24.447Z,140
2017-05-20T11:22:34.717Z,145
2017-05-20T11:23:44.667Z,145
2017-05-20T11:24:54.620Z,145
2017-05-20T11:26:04.566Z,150
2017-05-20T11:27:14.829Z,155
2017-05-20T11:28:25.131Z,170
2017-05-20T11:29:35.397Z,185
2017-05-20T11:30:45.660Z,205
2017-05-20T11:31:55.927Z,225
2017-05-20T11:33:05.886Z,245
2017-05-20T11:34:15.527Z,270
2017-05-20T11:35:25.788Z,275
2017-05-20T11:36:35.739Z,300
2017-05-20T11:37:46.011Z,330
2017-05-20T11:38:55.660Z,345
2017-05-20T11:40:05.932Z,360
2017-05-20T11:41:16.200Z,370
2017-05-20T11:42:25.836Z,375
2017-05-20T11:43:35.787Z,375
2017-05-20T11:44:46.054Z,365
2017-05-20T11:45:55.699Z,340
2017-05-20T11:47:05.337Z,320
2017-05-20T11:48:15.291Z,310
2017-05-20T11:49:25.559Z,310
2017-05-20T11:50:35.820Z,315
2017-05-20T11:51:45.778Z,310
2017-05-20T11:52:55.734Z,300
2017-05-20T11:54:05.682Z,280
2017-05-20T11:55:15.638Z,265
2017-05-20T11:56:25.902Z,245
2017-05-20T11:57:36.164Z,230
2017-05-20T11:58:46.126Z,215
2017-05-20T11:59:56.397Z,200
2017-05-20T12:01:06.660Z,200
2017-05-20T12:02:16.923Z,205
2017-05-20T12:03:26.567Z,220
2017-05-20T12:04:36.209Z,245
2017-05-20T12:05:46.163Z,255
2017-05-20T12:06:56.121Z,270
2017-05-20T12:08:06.072Z,280
2017-05-20T12:09:16.345Z,280
2017-05-20T12:10:26.304Z,270
2017-05-20T12:11:36.563Z,260
2017-05-20T12:12:46.519Z,235
2017-05-20T12:13:56.163Z,215
2017-05-20T12:15:05.798Z,200
2017-05-20T12:16:16.068Z,190
2017-05-20T12:17:26.329Z,180
2017-05-20T12:18:35.966Z,180
2017-05-20T12:19:47.864Z,190
2017-05-20T12:20:58.132Z,190
2017-05-20T12:22:08.083Z,195
2017-05-20T12:23:17.720Z,200
2017-05-20T12:24:27.671Z,210
2017-05-20T12:25:37.938Z,235
2017-05-20T12:26:47.892Z,245
2017-05-20T12:27:57.848Z,250
2017-05-20T12:29:08.115Z,245
2017-05-20T12:30:18.066Z,230
2017-05-20T12:31:28.332Z,215
2017-05-20T12:32:37.977Z,200
2017-05-20T12:33:48.242Z,195
2017-05-20T12:34:58.202Z,190
2017-05-20T12:36:08.157Z,190
2017-05-20T12:37:18.109Z,200
2017-05-20T12:38:28.053Z,220
2017-05-20T12:39:37.997Z,240
2017-05-20T12:40:47.955Z,250
2017-05-20T12:41:57.910Z,250
2017-05-20T12:43:08.183Z,250
2017-05-20T12:44:18.183Z,240
2017-05-20T12:45:28.446Z,225
2017-05-20T12:46:38.713Z,220
2017-05-20T12:47:48.677Z,215
2017-05-20T12:48:58.320Z,210
2017-05-20T12:50:08.590Z,205
2017-05-20T12:51:18.229Z,195
2017-05-20T12:52:27.876Z,185
2017-05-20T12:53:38.142Z,180
2017-05-20T12:54:48.410Z,170
2017-05-20T12:55:57.736Z,165
2017-05-20T12:57:07.382Z,160
2017-05-20T12:58:17.650Z,170
2017-05-20T12:59:27.607Z,175
2017-05-20T13:00:37.871Z,175
2017-05-20T13:01:48.137Z,160
2017-05-20T13:02:58.407Z,150
2017-05-20T13:04:08.354Z,145
2017-05-20T13:05:18.619Z,145
2017-05-20T13:06:28.882Z,150
2017-05-20T13:07:38.834Z,155
2017-05-20T13:08:48.791Z,160
2017-05-20T13:09:58.749Z,170
2017-05-20T13:11:08.392Z,185
2017-05-20T13:12:18.078Z,190
2017-05-20T13:13:27.733Z,185
2017-05-20T13:14:37.685Z,185
2017-05-20T13:15:47.963Z,185
2017-05-20T13:16:58.230Z,190
2017-05-20T13:18:08.182Z,185
2017-05-20T13:19:18.138Z,175
2017-05-20T13:20:28.093Z,155
2017-05-20T13:21:38.351Z,145
2017-05-20T13:22:48.623Z,140
2017-05-20T13:23:58.888Z,130
2017-05-20T13:25:08.842Z,120
2017-05-20T13:26:19.121Z,110
2017-05-20T13:27:29.387Z,105
2017-05-20T13:28:39.659Z,95
2017-05-20T13:29:49.923Z,95
2017-05-20T13:31:00.196Z,105
2017-05-20T13:32:10.145Z,110
2017-05-20T13:33:20.104Z,115
2017-05-20T13:34:30.367Z,120
2017-05-20T13:35:40.642Z,120
2017-05-20T13:36:50.913Z,120
2017-05-20T13:38:00.881Z,120
2017-05-20T13:39:10.525Z,120
2017-05-20T13:40:20.478Z,115
2017-05-20T13:41:30.112Z,120
2017-05-20T13:42:40.378Z,120
2017-05-20T13:43:50.686Z,125
2017-05-20T13:45:00.640Z,115
2017-05-20T13:46:10.592Z,115
2017-05-20T13:47:20.546Z,115
2017-05-20T13:48:30.811Z,125
2017-05-20T13:49:40.446Z,130
2017-05-20T13:50:50.397Z,135
2017-05-20T13:52:00.038Z,130
2017-05-20T13:53:09.679Z,125
2017-05-20T13:54:19.943Z,120
2017-05-20T13:55:30.209Z,115
2017-05-20T13:56:40.478Z,110
2017-05-20T13:57:50.437Z,110
2017-05-20T13:59:00.397Z,110
2017-05-20T14:00:10.672Z,110
2017-05-20T14:01:20.625Z,115
2017-05-20T14:02:30.902Z,115
2017-05-20T14:03:41.175Z,115
2017-05-20T14:04:51.441Z,115
2017-05-20T14:06:01.711Z,115
2017-05-20T14:07:11.347Z,115
2017-05-20T14:08:21.606Z,110
2017-05-20T14:09:31.868Z,110
2017-05-20T14:10:41.824Z,110
2017-05-20T14:11:52.180Z,110
2017-05-20T14:13:01.819Z,115
2017-05-20T14:14:11.458Z,125
2017-05-20T14:15:21.725Z,130
2017-05-20T14:16:31.991Z,135
2017-05-20T14:17:41.942Z,135
2017-05-20T14:18:51.270Z,135
2017-05-20T14:20:01.221Z,145
2017-05-20T14:21:11.173Z,160
2017-05-20T14:22:21.442Z,170
2017-05-20T14:23:31.391Z,180
2017-05-20T14:24:41.345Z,185
2017-05-20T14:25:51.611Z,195
2017-05-20T14:27:01.567Z,200
2017-05-20T14:28:11.862Z,210
2017-05-20T14:29:22.209Z,215
2017-05-20T14:30:32.159Z,215
2017-05-20T14:31:42.112Z,205
2017-05-20T14:32:52.379Z,190
2017-05-20T14:34:02.332Z,165
2017-05-20T14:35:12.284Z,145
2017-05-20T14:36:22.237Z,140
2017-05-20T14:37:32.502Z,140
2017-05-20T14:38:42.464Z,150
2017-05-20T14:39:52.733Z,160
2017-05-20T14:41:02.380Z,165
2017-05-20T14:42:12.329Z,165
2017-05-20T14:43:21.977Z,165
2017-05-20T14:44:31.934Z,155
2017-05-20T14:45:41.884Z,145
2017-05-20T14:46:52.153Z,145
2017-05-20T14:48:01.485Z,145
2017-05-20T14:49:11.751Z,145
2017-05-20T14:50:22.016Z,145
2017-05-20T14:51:31.654Z,150
2017-05-20T14:52:41.923Z,155
2017-05-20T14:53:51.873Z,165
2017-05-20T14:55:01.198Z,175
2017-05-20T14:56:11.211Z,185
2017-05-20T14:57:20.861Z,185
2017-05-20T14:58:30.499Z,180
2017-05-20T14:59:40.763Z,175
2017-05-20T15:00:51.027Z,165
2017-05-20T15:02:00.986Z,165
2017-05-20T15:03:10.628Z,170
2017-05-20T15:04:20.897Z,180
2017-05-20T15:05:30.537Z,190
2017-05-20T15:06:40.805Z,190
2017-05-20T15:07:50.763Z,150
2017-05-20T15:09:00.722Z,155
2017-05-20T15:10:10.045Z,160
2017-05-20T15:11:20.312Z,155
2017-05-20T15:12:30.578Z,155
2017-05-20T15:13:40.220Z,155
2017-05-20T15:14:50.175Z,160
2017-05-20T15:16:00.126Z,165
2017-05-20T15:17:09.764Z,175
2017-05-20T15:18:19.719Z,175
2017-05-20T15:19:29.984Z,180
2017-05-20T15:20:39.931Z,180
2017-05-20T15:21:49.879Z,185
2017-05-20T15:22:59.832Z,185
2017-05-20T15:24:09.172Z,180
2017-05-20T15:25:19.128Z,160
2017-05-20T15:26:29.085Z,155
2017-05-20T15:27:39.091Z,155
2017-05-20T15:28:49.361Z,160
2017-05-20T15:29:59.313Z,170
2017-05-20T15:31:08.956Z,215
2017-05-20T15:32:19.223Z,225
2017-05-20T15:33:28.922Z,235
2017-05-20T15:34:39.188Z,240
2017-05-20T15:35:49.146Z,245
2017-05-20T15:36:59.102Z,250
2017-05-20T15:38:08.744Z,275
2017-05-20T15:39:18.389Z,300
2017-05-20T15:40:28.875Z,310
2017-05-20T15:41:38.833Z,300
2017-05-20T15:42:49.099Z,295
2017-05-20T15:43:59.361Z,280
2017-05-20T15:45:09.318Z,275
2017-05-20T15:46:19.281Z,280
2017-05-20T15:47:29.560Z,290
2017-05-20T15:48:39.518Z,315
2017-05-20T15:49:51.474Z,345
2017-05-20T15:51:01.431Z,370
2017-05-20T15:52:11.699Z,410
2017-05-20T15:53:21.655Z,445
2017-05-20T15:54:31.926Z,475
2017-05-20T15:55:41.564Z,510
2017-05-20T15:56:51.202Z,535
2017-05-20T15:58:01.166Z,560
2017-05-20T15:59:11.441Z,590
2017-05-20T16:00:21.390Z,610
2017-05-20T16:01:31.666Z,630
2017-05-20T16:02:41.624Z,650
2017-05-20T16:03:51.911Z,735
2017-05-20T16:05:01.241Z,1050
2017-05-20T16:06:11.197Z,1045
2017-05-20T16:07:21.152Z,780
2017-05-20T16:08:31.107Z,835
2017-05-20T16:09:41.379Z,780
2017-05-20T16:10:51.643Z,840
2017-05-20T16:12:01.282Z,785
2017-05-20T16:13:10.609Z,755
2017-05-20T16:14:20.253Z,810
2017-05-20T16:15:30.521Z,775
2017-05-20T16:16:40.782Z,1250
2017-05-20T16:17:50.423Z,1355
2017-05-20T16:19:00.695Z,925
2017-05-20T16:20:10.028Z,725
2017-05-20T16:21:19.980Z,725
2017-05-20T16:22:29.932Z,735